createdAt,value
2019-05-01T00:01:38.463Z,82.80
2019-05-01T00:04:25.709Z,83.46
2019-05-01T00:06:54.272Z,83.65
2019-05-01T00:09:21.006Z,84.11
2019-05-01T00:11:47.726Z,84.42
2019-05-01T00:14:14.470Z,83.79
2019-05-01T00:16:41.240Z,84.48
2019-05-01T00:19:08.172Z,84.13
2019-05-01T00:21:34.953Z,84.77
2019-05-01T00:24:01.708Z,86.48
2019-05-01T00:26:28.453Z,84.23
2019-05-01T00:28:55.190Z,85.02
2019-05-01T00:31:21.911Z,85.70
2019-05-01T00:33:48.657Z,85.17
2019-05-01T00:36:15.410Z,85.59
2019-05-01T00:38:42.166Z,84.50
2019-05-01T00:41:08.890Z,84.70
2019-05-01T00:43:35.622Z,83.40
2019-05-01T00:46:02.367Z,85.27
2019-05-01T00:48:29.198Z,85.14
2019-05-01T00:50:55.934Z,84.60
2019-05-01T00:53:22.658Z,84.74
2019-05-01T00:55:57.290Z,83.59
2019-05-01T00:58:30.742Z,82.39
2019-05-01T01:01:03.219Z,85.93
2019-05-01T01:03:29.937Z,82.19
2019-05-01T01:05:56.674Z,85.17
2019-05-01T01:08:23.397Z,84.65
2019-05-01T01:10:50.142Z,86.37
2019-05-01T01:13:16.870Z,86.02
2019-05-01T01:15:43.653Z,88.77
2019-05-01T01:18:10.383Z,87.28
2019-05-01T01:20:37.138Z,87.14
2019-05-01T01:23:03.886Z,86.83
2019-05-01T01:25:30.618Z,84.40
2019-05-01T01:27:57.356Z,85.67
2019-05-01T01:30:24.087Z,86.62
2019-05-01T01:32:50.827Z,86.34
2019-05-01T01:35:17.574Z,86.59
2019-05-01T01:37:44.319Z,85.73
2019-05-01T01:40:11.068Z,88.33
2019-05-01T01:42:37.831Z,88.42
2019-05-01T01:45:14.301Z,86.55
2019-05-01T01:47:46.746Z,87.81
2019-05-01T01:50:13.487Z,87.64
2019-05-01T01:52:40.216Z,88.13
2019-05-01T01:55:06.965Z,87.79
2019-05-01T01:57:33.698Z,87.76
2019-05-01T02:00:00.459Z,87.81
2019-05-01T02:02:42.470Z,87.57
2019-05-01T02:05:11.673Z,87.15
2019-05-01T02:07:38.485Z,87.17
2019-05-01T02:10:05.571Z,86.89
2019-05-01T02:12:32.291Z,85.02
2019-05-01T02:14:59.010Z,85.27
2019-05-01T02:17:25.743Z,86.99
2019-05-01T02:19:52.470Z,87.10
2019-05-01T02:22:19.243Z,87.77
2019-05-01T02:24:45.967Z,86.69
2019-05-01T02:27:16.366Z,87.44
2019-05-01T02:29:46.222Z,87.81
2019-05-01T02:32:13.919Z,87.76
2019-05-01T02:34:40.630Z,87.78
2019-05-01T02:37:07.375Z,86.93
2019-05-01T02:39:34.103Z,87.97
2019-05-01T02:42:00.963Z,87.15
2019-05-01T02:44:29.131Z,85.53
2019-05-01T02:46:55.866Z,87.15
2019-05-01T02:49:32.998Z,89.07
2019-05-01T02:52:00.143Z,88.10
2019-05-01T02:54:26.859Z,86.25
2019-05-01T02:56:57.703Z,84.80
2019-05-01T02:59:24.744Z,87.21
2019-05-01T03:01:51.462Z,88.23
2019-05-01T03:04:18.202Z,86.98
2019-05-01T03:06:44.955Z,87.28
2019-05-01T03:09:11.683Z,87.75
2019-05-01T03:11:38.846Z,87.52
2019-05-01T03:14:06.401Z,88.63
2019-05-01T03:16:33.126Z,87.85
2019-05-01T03:18:59.870Z,87.21
2019-05-01T03:21:33.475Z,87.11
2019-05-01T03:24:04.095Z,87.38
2019-05-01T03:26:30.839Z,87.68
2019-05-01T03:28:57.582Z,85.86
2019-05-01T03:31:24.371Z,87.50
2019-05-01T03:33:51.089Z,87.41
2019-05-01T03:36:17.871Z,88.38
2019-05-01T03:38:44.585Z,87.97
2019-05-01T03:41:11.326Z,88.87
2019-05-01T03:43:38.744Z,88.67
2019-05-01T03:46:05.467Z,89.10
2019-05-01T03:48:32.313Z,90.17
2019-05-01T03:50:59.043Z,90.79
2019-05-01T03:53:25.787Z,90.55
2019-05-01T03:55:52.535Z,89.63
2019-05-01T03:58:19.284Z,88.51
2019-05-01T04:00:56.354Z,89.22
2019-05-01T04:03:26.316Z,89.42
2019-05-01T04:05:53.039Z,89.03
2019-05-01T04:08:19.772Z,89.41
2019-05-01T04:10:46.567Z,89.04
2019-05-01T04:13:13.426Z,89.64
2019-05-01T04:15:40.153Z,89.46
2019-05-01T04:18:06.895Z,89.55
2019-05-01T04:20:33.615Z,90.48
2019-05-01T04:23:00.895Z,89.60
2019-05-01T04:25:27.699Z,88.93
2019-05-01T04:27:58.533Z,88.08
2019-05-01T04:30:25.714Z,87.00
2019-05-01T04:32:53.420Z,89.59
2019-05-01T04:35:23.623Z,89.54
2019-05-01T04:37:52.651Z,86.98
2019-05-01T04:40:19.607Z,85.14
2019-05-01T04:42:46.365Z,86.37
2019-05-01T04:45:13.095Z,87.25
2019-05-01T04:47:39.843Z,85.57
2019-05-01T04:50:06.684Z,85.15
2019-05-01T04:52:33.448Z,83.52
2019-05-01T04:55:00.167Z,83.39
2019-05-01T04:57:26.959Z,83.55
2019-05-01T04:59:53.687Z,82.51
2019-05-01T05:02:30.269Z,81.38
2019-05-01T05:04:56.994Z,81.61
2019-05-01T05:07:23.742Z,80.55
2019-05-01T05:09:50.463Z,80.29
2019-05-01T05:12:21.718Z,79.94
2019-05-01T05:14:51.234Z,79.47
2019-05-01T05:17:20.622Z,77.13
2019-05-01T05:19:47.365Z,78.23
2019-05-01T05:22:16.495Z,79.45
2019-05-01T05:24:40.839Z,75.98
2019-05-01T05:27:07.550Z,75.87
2019-05-01T05:29:34.278Z,75.81
2019-05-01T05:32:01.012Z,76.85
2019-05-01T05:34:27.767Z,76.80
2019-05-01T05:36:54.586Z,76.97
2019-05-01T05:39:26.018Z,76.77
2019-05-01T05:41:52.742Z,75.56
2019-05-01T05:44:19.517Z,75.83
2019-05-01T05:46:46.270Z,76.24
2019-05-01T05:49:13.017Z,76.56
2019-05-01T05:51:46.701Z,76.24
2019-05-01T05:54:33.974Z,76.25
2019-05-01T05:57:04.617Z,75.69
2019-05-01T05:59:31.434Z,72.79
2019-05-01T06:02:09.602Z,74.03
2019-05-01T06:04:45.448Z,72.83
2019-05-01T06:07:33.137Z,73.76
2019-05-01T06:10:05.846Z,74.64
2019-05-01T06:12:41.648Z,73.44
2019-05-01T06:15:15.102Z,73.87
2019-05-01T06:17:46.778Z,72.27
2019-05-01T06:20:20.912Z,73.46
2019-05-01T06:22:51.494Z,73.85
2019-05-01T06:25:25.293Z,74.15
2019-05-01T06:27:50.423Z,73.51
2019-05-01T06:30:16.266Z,71.66
2019-05-01T06:32:42.994Z,70.04
2019-05-01T06:35:09.725Z,69.74
2019-05-01T06:37:55.912Z,71.86
2019-05-01T06:40:22.553Z,70.64
2019-05-01T06:42:50.133Z,71.15
2019-05-01T06:45:16.873Z,70.83
2019-05-01T06:47:47.654Z,70.69
2019-05-01T06:50:19.737Z,71.49
2019-05-01T06:52:46.454Z,71.21
2019-05-01T06:55:13.214Z,70.01
2019-05-01T06:57:43.883Z,68.79
2019-05-01T07:00:08.088Z,70.58
2019-05-01T07:02:35.103Z,70.99
2019-05-01T07:05:01.080Z,70.39
2019-05-01T07:07:27.857Z,68.30
2019-05-01T07:09:54.621Z,71.05
2019-05-01T07:12:24.046Z,71.46
2019-05-01T07:14:50.870Z,70.76
2019-05-01T07:17:15.327Z,72.35
2019-05-01T07:19:53.111Z,71.40
2019-05-01T07:22:19.844Z,72.19
2019-05-01T07:24:49.016Z,71.81
2019-05-01T07:27:13.298Z,69.53
2019-05-01T07:29:44.773Z,70.58
2019-05-01T07:32:07.558Z,71.35
2019-05-01T07:34:33.521Z,71.01
2019-05-01T07:37:00.278Z,72.14
2019-05-01T07:39:26.990Z,70.02
2019-05-01T07:41:53.918Z,70.33
2019-05-01T07:44:30.107Z,68.20
2019-05-01T07:47:06.094Z,69.58
2019-05-01T07:49:55.025Z,69.18
2019-05-01T07:52:21.701Z,68.38
2019-05-01T07:54:48.419Z,68.02
2019-05-01T07:57:15.178Z,67.94
2019-05-01T07:59:41.898Z,67.94
2019-05-01T08:02:10.594Z,65.49
2019-05-01T08:04:37.372Z,65.04
2019-05-01T08:07:04.121Z,67.22
2019-05-01T08:09:30.847Z,65.64
2019-05-01T08:11:57.600Z,66.37
2019-05-01T08:14:24.333Z,66.33
2019-05-01T08:16:51.080Z,68.75
2019-05-01T08:19:21.453Z,65.90
2019-05-01T08:21:56.877Z,66.54
2019-05-01T08:24:23.047Z,65.70
2019-05-01T08:26:47.350Z,66.42
2019-05-01T08:29:42.175Z,66.02
2019-05-01T08:32:16.229Z,64.55
2019-05-01T08:34:49.231Z,64.83
2019-05-01T08:37:09.790Z,65.04
2019-05-01T08:39:39.678Z,62.01
2019-05-01T08:42:07.050Z,62.54
2019-05-01T08:44:30.843Z,62.85
2019-05-01T08:47:01.881Z,61.16
2019-05-01T08:49:50.642Z,61.04
2019-05-01T08:52:14.998Z,60.78
2019-05-01T08:54:41.731Z,60.50
2019-05-01T08:57:08.478Z,60.45
2019-05-01T08:59:35.202Z,60.13
2019-05-01T09:02:09.586Z,61.27
2019-05-01T09:04:30.443Z,59.87
2019-05-01T09:06:55.514Z,62.61
2019-05-01T09:09:22.246Z,60.22
2019-05-01T09:11:48.986Z,60.00
2019-05-01T09:14:15.716Z,57.46
2019-05-01T09:16:42.525Z,57.81
2019-05-01T09:19:09.444Z,58.78
2019-05-01T09:21:37.912Z,56.25
2019-05-01T09:24:02.921Z,56.84
2019-05-01T09:26:50.307Z,59.17
2019-05-01T09:29:19.694Z,55.15
2019-05-01T09:31:46.628Z,53.93
2019-05-01T09:34:14.149Z,53.55
2019-05-01T09:36:40.139Z,52.81
2019-05-01T09:39:06.965Z,53.41
2019-05-01T09:41:38.538Z,54.81
2019-05-01T09:44:01.314Z,56.33
2019-05-01T09:46:29.123Z,57.12
2019-05-01T09:48:58.189Z,53.39
2019-05-01T09:51:29.150Z,53.28
2019-05-01T09:54:09.883Z,54.60
2019-05-01T09:56:33.961Z,53.28
2019-05-01T09:59:00.762Z,53.34
2019-05-01T10:01:31.684Z,52.59
2019-05-01T10:03:54.832Z,51.01
2019-05-01T10:06:20.999Z,51.19
2019-05-01T10:08:47.844Z,52.90
2019-05-01T10:11:14.674Z,53.15
2019-05-01T10:13:41.521Z,50.05
2019-05-01T10:16:08.358Z,52.14
2019-05-01T10:18:35.122Z,51.73
2019-05-01T10:21:01.934Z,49.50
2019-05-01T10:23:28.709Z,51.27
2019-05-01T10:25:55.525Z,49.03
2019-05-01T10:28:32.001Z,49.88
2019-05-01T10:31:06.995Z,50.75
2019-05-01T10:33:38.351Z,48.52
2019-05-01T10:36:18.274Z,47.59
2019-05-01T10:38:39.832Z,48.76
2019-05-01T10:41:04.254Z,45.42
2019-05-01T10:43:30.342Z,46.36
2019-05-01T10:45:57.106Z,42.89
2019-05-01T10:48:23.835Z,45.30
2019-05-01T10:50:50.675Z,42.56
2019-05-01T10:53:17.410Z,44.63
2019-05-01T10:55:44.159Z,44.91
2019-05-01T10:58:12.676Z,42.61
2019-05-01T11:00:37.658Z,45.78
2019-05-01T11:03:04.381Z,40.65
2019-05-01T11:05:31.121Z,40.10
2019-05-01T11:07:57.927Z,39.31
2019-05-01T11:10:24.733Z,38.85
2019-05-01T11:12:51.441Z,41.34
2019-05-01T11:15:18.222Z,37.30
2019-05-01T11:17:44.951Z,40.53
2019-05-01T11:20:11.766Z,40.10
2019-05-01T11:22:38.501Z,37.12
2019-05-01T11:25:05.465Z,39.43
2019-05-01T11:27:32.194Z,40.94
2019-05-01T11:29:58.955Z,38.49
2019-05-01T11:32:31.449Z,40.69
2019-05-01T11:35:04.923Z,38.72
2019-05-01T11:37:51.258Z,38.20
2019-05-01T11:40:24.961Z,38.88
2019-05-01T11:42:51.686Z,39.28
2019-05-01T11:45:18.478Z,40.30
2019-05-01T11:47:45.205Z,40.52
2019-05-01T11:50:11.962Z,38.25
2019-05-01T11:52:38.693Z,39.60
2019-05-01T11:55:05.546Z,40.22
2019-05-01T11:57:32.278Z,43.76
2019-05-01T11:59:59.027Z,43.25
2019-05-01T12:02:25.766Z,41.94
2019-05-01T12:04:52.509Z,39.08
2019-05-01T12:07:19.241Z,42.44
2019-05-01T12:09:45.994Z,38.65
2019-05-01T12:12:12.738Z,36.04
2019-05-01T12:14:39.469Z,39.06
2019-05-01T12:17:12.923Z,37.85
2019-05-01T12:19:39.678Z,42.01
2019-05-01T12:22:06.428Z,39.76
2019-05-01T12:24:33.186Z,38.17
2019-05-01T12:26:59.951Z,39.45
2019-05-01T12:29:26.685Z,37.64
2019-05-01T12:31:53.436Z,39.34
2019-05-01T12:34:20.158Z,38.79
2019-05-01T12:36:46.956Z,37.56
2019-05-01T12:39:15.434Z,41.66
2019-05-01T12:41:47.095Z,39.75
2019-05-01T12:44:13.810Z,39.62
2019-05-01T12:46:44.974Z,37.05
2019-05-01T12:49:11.911Z,38.08
2019-05-01T12:51:38.614Z,37.38
2019-05-01T12:54:09.378Z,38.60
2019-05-01T12:56:41.454Z,37.73
2019-05-01T12:59:08.216Z,37.66
2019-05-01T13:01:34.957Z,37.88
2019-05-01T13:04:01.794Z,37.61
2019-05-01T13:06:28.529Z,37.67
2019-05-01T13:08:55.254Z,35.96
2019-05-01T13:11:21.989Z,34.70
2019-05-01T13:13:48.715Z,34.95
2019-05-01T13:16:15.465Z,33.52
2019-05-01T13:18:42.190Z,35.84
2019-05-01T13:21:09.021Z,36.24
2019-05-01T13:23:35.826Z,35.99
2019-05-01T13:26:09.002Z,33.49
2019-05-01T13:28:48.857Z,34.40
2019-05-01T13:31:23.158Z,34.55
2019-05-01T13:33:49.898Z,35.03
2019-05-01T13:36:17.173Z,35.27
2019-05-01T13:38:43.414Z,35.38
2019-05-01T13:41:10.201Z,35.40
2019-05-01T13:43:36.953Z,37.73
2019-05-01T13:46:03.705Z,35.92
2019-05-01T13:48:30.565Z,34.41
2019-05-01T13:50:57.352Z,33.68
2019-05-01T13:53:24.110Z,36.91
2019-05-01T13:55:50.861Z,34.42
2019-05-01T13:58:17.622Z,34.02
2019-05-01T14:00:44.374Z,30.94
2019-05-01T14:03:11.126Z,32.32
2019-05-01T14:05:37.858Z,32.04
2019-05-01T14:08:04.612Z,33.11
2019-05-01T14:10:31.390Z,35.23
2019-05-01T14:12:58.510Z,30.87
2019-05-01T14:15:25.275Z,33.59
2019-05-01T14:17:52.022Z,34.22
2019-05-01T14:20:28.080Z,32.79
2019-05-01T14:22:58.324Z,32.19
2019-05-01T14:25:25.047Z,31.50
2019-05-01T14:27:51.804Z,34.09
2019-05-01T14:30:18.597Z,32.42
2019-05-01T14:32:45.337Z,31.80
2019-05-01T14:35:12.094Z,31.51
2019-05-01T14:37:38.899Z,29.44
2019-05-01T14:40:05.631Z,30.18
2019-05-01T14:42:32.407Z,33.04
2019-05-01T14:44:59.240Z,31.09
2019-05-01T14:47:25.917Z,29.72
2019-05-01T14:52:27.003Z,32.57
2019-05-01T14:54:53.746Z,30.61
2019-05-01T14:57:20.470Z,31.31
2019-05-01T14:59:47.212Z,30.98
2019-05-01T15:02:13.975Z,32.64
2019-05-01T15:04:40.718Z,31.00
2019-05-01T15:07:07.465Z,32.50
2019-05-01T15:09:34.222Z,30.96
2019-05-01T15:12:01.040Z,31.49
2019-05-01T15:14:37.066Z,30.64
2019-05-01T15:17:22.794Z,29.63
2019-05-01T15:19:54.611Z,31.48
2019-05-01T15:22:21.334Z,31.43
2019-05-01T15:24:48.078Z,31.66
2019-05-01T15:27:14.795Z,30.81
2019-05-01T15:29:41.530Z,29.19
2019-05-01T15:32:08.259Z,30.84
2019-05-01T15:34:35.003Z,29.23
2019-05-01T15:37:01.756Z,29.41
2019-05-01T15:39:32.626Z,31.41
2019-05-01T15:42:20.978Z,30.47
2019-05-01T15:44:47.893Z,30.08
2019-05-01T15:47:14.438Z,29.62
2019-05-01T15:49:41.215Z,29.04
2019-05-01T15:52:08.217Z,29.16
2019-05-01T15:54:34.967Z,29.89
2019-05-01T15:57:01.682Z,28.50
2019-05-01T15:59:28.486Z,28.70
2019-05-01T16:01:55.326Z,27.56
2019-05-01T16:04:22.079Z,29.02
2019-05-01T16:06:48.814Z,27.56
2019-05-01T16:09:15.600Z,27.69
2019-05-01T16:11:48.190Z,27.42
2019-05-01T16:14:14.934Z,29.80
2019-05-01T16:16:41.659Z,31.15
2019-05-01T16:19:08.406Z,31.68
2019-05-01T16:21:35.126Z,32.79
2019-05-01T16:24:01.990Z,32.31
2019-05-01T16:26:28.706Z,33.36
2019-05-01T16:28:55.463Z,34.65
2019-05-01T16:31:22.197Z,34.32
2019-05-01T16:33:48.938Z,33.94
2019-05-01T16:36:15.666Z,35.01
2019-05-01T16:39:02.942Z,32.25
2019-05-01T16:41:29.800Z,32.07
2019-05-01T16:43:56.546Z,35.88
2019-05-01T16:46:23.297Z,33.34
2019-05-01T16:48:50.024Z,32.73
2019-05-01T16:51:16.775Z,32.87
2019-05-01T16:53:43.483Z,33.39
2019-05-01T16:56:10.258Z,33.92
2019-05-01T16:58:36.986Z,29.95
2019-05-01T17:01:05.329Z,30.96
2019-05-01T17:03:42.226Z,31.58
2019-05-01T17:06:14.165Z,32.88
2019-05-01T17:08:51.658Z,30.80
2019-05-01T17:11:20.638Z,32.39
2019-05-01T17:13:47.374Z,30.40
2019-05-01T17:16:14.101Z,34.16
2019-05-01T17:18:40.838Z,30.61
2019-05-01T17:21:07.582Z,29.71
2019-05-01T17:23:34.330Z,31.83
2019-05-01T17:26:01.059Z,32.95
2019-05-01T17:28:27.826Z,32.27
2019-05-01T17:30:56.914Z,31.65
2019-05-01T17:33:23.714Z,31.77
2019-05-01T17:35:50.442Z,31.65
2019-05-01T17:38:17.206Z,30.18
2019-05-01T17:40:47.469Z,30.54
2019-05-01T17:43:13.567Z,31.31
2019-05-01T17:45:37.983Z,31.97
2019-05-01T17:48:04.722Z,33.00
2019-05-01T17:50:31.511Z,32.76
2019-05-01T17:52:58.239Z,33.14
2019-05-01T17:55:25.002Z,33.75
2019-05-01T17:57:51.765Z,35.08
2019-05-01T18:00:33.485Z,35.40
2019-05-01T18:03:05.214Z,34.85
2019-05-01T18:05:47.750Z,35.62
2019-05-01T18:08:14.485Z,37.81
2019-05-01T18:10:41.240Z,39.78
2019-05-01T18:13:08.171Z,43.99
2019-05-01T18:15:34.926Z,42.18
2019-05-01T18:18:01.670Z,41.78
2019-05-01T18:20:28.428Z,44.86
2019-05-01T18:23:12.265Z,44.48
2019-05-01T18:25:41.438Z,46.19
2019-05-01T18:28:20.130Z,48.06
2019-05-01T18:30:46.898Z,48.57
2019-05-01T18:33:13.621Z,48.91
2019-05-01T18:35:40.367Z,50.11
2019-05-01T18:38:14.465Z,50.16
2019-05-01T18:40:45.806Z,50.17
2019-05-01T18:43:12.531Z,51.15
2019-05-01T18:45:44.294Z,52.41
2019-05-01T18:48:11.023Z,53.70
2019-05-01T18:50:37.770Z,54.65
2019-05-01T18:53:06.791Z,55.09
2019-05-01T18:55:31.527Z,53.61
2019-05-01T18:57:58.067Z,56.52
2019-05-01T19:00:24.817Z,56.24
2019-05-01T19:02:51.554Z,57.16
2019-05-01T19:05:18.309Z,57.94
2019-05-01T19:07:45.042Z,59.08
2019-05-01T19:10:11.786Z,59.45
2019-05-01T19:12:38.525Z,59.97
2019-05-01T19:15:05.852Z,58.83
2019-05-01T19:17:32.014Z,59.53
2019-05-01T19:19:58.758Z,56.84
2019-05-01T19:22:25.483Z,59.32
2019-05-01T19:24:52.212Z,58.03
2019-05-01T19:27:20.842Z,61.70
2019-05-01T19:29:45.702Z,60.84
2019-05-01T19:32:12.427Z,61.08
2019-05-01T19:34:39.171Z,61.15
2019-05-01T19:37:05.907Z,61.81
2019-05-01T19:39:43.052Z,60.76
2019-05-01T19:41:59.394Z,61.33
2019-05-01T19:44:26.163Z,60.91
2019-05-01T19:46:52.863Z,62.14
2019-05-01T19:49:19.619Z,62.50
2019-05-01T19:51:46.329Z,63.09
2019-05-01T19:54:13.052Z,63.56
2019-05-01T19:56:39.791Z,63.96
2019-05-01T19:59:06.610Z,65.26
2019-05-01T20:01:33.311Z,64.11
2019-05-01T20:04:00.043Z,64.56
2019-05-01T20:06:26.847Z,67.97
2019-05-01T20:08:53.525Z,68.25
2019-05-01T20:11:20.266Z,67.74
2019-05-01T20:13:47.015Z,65.86
2019-05-01T20:16:13.849Z,63.73
2019-05-01T20:18:40.578Z,63.67
2019-05-01T20:21:07.331Z,63.84
2019-05-01T20:23:34.067Z,64.12
2019-05-01T20:26:00.814Z,65.44
2019-05-01T20:28:28.433Z,64.53
2019-05-01T20:30:54.348Z,65.22
2019-05-01T20:33:21.114Z,64.56
2019-05-01T20:35:47.853Z,63.33
2019-05-01T20:38:14.577Z,63.88
2019-05-01T20:40:41.318Z,63.87
2019-05-01T20:43:08.162Z,64.11
2019-05-01T20:45:34.924Z,65.46
2019-05-01T20:48:01.718Z,66.36
2019-05-01T20:50:28.533Z,66.27
2019-05-01T20:52:55.260Z,63.95
2019-05-01T20:55:22.018Z,65.46
2019-05-01T20:57:48.758Z,65.87
2019-05-01T21:00:16.502Z,66.28
2019-05-01T21:02:43.157Z,66.36
2019-05-01T21:05:30.427Z,67.59
2019-05-01T21:08:03.104Z,67.67
2019-05-01T21:10:34.361Z,67.73
2019-05-01T21:12:59.206Z,67.56
2019-05-01T21:15:26.823Z,68.73
2019-05-01T21:17:52.670Z,67.43
2019-05-01T21:20:19.442Z,69.12
2019-05-01T21:22:46.250Z,67.74
2019-05-01T21:25:13.819Z,65.84
2019-05-01T21:27:39.709Z,67.24
2019-05-01T21:30:06.440Z,73.49
2019-05-01T21:32:33.966Z,71.50
2019-05-01T21:34:59.922Z,71.08
2019-05-01T21:37:26.773Z,70.90
2019-05-01T21:39:53.845Z,72.88
2019-05-01T21:42:20.246Z,71.49
2019-05-01T21:44:46.992Z,73.97
2019-05-01T21:47:14.044Z,72.94
2019-05-01T21:49:40.442Z,72.78
2019-05-01T21:52:07.458Z,72.11
2019-05-01T21:54:33.910Z,72.10
2019-05-01T21:57:00.667Z,72.74
2019-05-01T21:59:27.401Z,71.74
2019-05-01T22:01:54.137Z,72.39
2019-05-01T22:04:20.869Z,73.41
2019-05-01T22:06:51.854Z,74.30
2019-05-01T22:09:18.450Z,70.67
2019-05-01T22:11:45.421Z,75.47
2019-05-01T22:14:15.017Z,76.99
2019-05-01T22:16:41.754Z,76.81
2019-05-01T22:19:16.878Z,76.54
2019-05-01T22:22:03.243Z,75.65
2019-05-01T22:24:50.529Z,73.91
2019-05-01T22:27:20.950Z,73.96
2019-05-01T22:29:52.470Z,74.64
2019-05-01T22:32:23.022Z,74.88
2019-05-01T22:34:54.462Z,72.52
2019-05-01T22:37:21.210Z,73.25
2019-05-01T22:39:51.214Z,74.37
2019-05-01T22:42:17.954Z,74.39
2019-05-01T22:44:44.693Z,74.22
2019-05-01T22:47:15.005Z,71.99
2019-05-01T22:49:38.153Z,73.77
2019-05-01T22:52:04.910Z,75.36
2019-05-01T22:54:31.646Z,74.74
2019-05-01T22:56:58.386Z,74.53
2019-05-01T22:59:25.130Z,76.26
2019-05-01T23:01:53.105Z,75.47
2019-05-01T23:04:19.057Z,73.89
2019-05-01T23:06:45.754Z,73.98
2019-05-01T23:09:12.786Z,72.51
2019-05-01T23:11:41.187Z,75.03
2019-05-01T23:14:08.065Z,75.10
2019-05-01T23:16:38.874Z,75.60
2019-05-01T23:19:05.613Z,75.27
2019-05-01T23:21:32.321Z,75.51
2019-05-01T23:24:02.045Z,75.51
2019-05-01T23:26:25.786Z,75.10
2019-05-01T23:28:52.530Z,75.51
2019-05-01T23:31:19.546Z,76.56
2019-05-01T23:33:50.693Z,76.30
2019-05-01T23:36:22.997Z,77.36
2019-05-01T23:38:39.730Z,77.10
2019-05-01T23:41:06.462Z,76.83
2019-05-01T23:43:33.194Z,78.01
2019-05-01T23:45:59.917Z,77.44
2019-05-01T23:48:26.653Z,77.88
2019-05-01T23:50:53.374Z,78.85
2019-05-01T23:53:20.123Z,79.09
2019-05-01T23:55:46.857Z,78.65
2019-05-01T23:58:13.670Z,79.07
